createdAt,value
2018-02-12T00:00:43.692Z,99.99
2018-02-12T00:01:43.605Z,99.99
2018-02-12T00:02:43.524Z,99.99
2018-02-12T00:03:43.434Z,99.99
2018-02-12T00:04:43.356Z,99.99
2018-02-12T00:05:43.274Z,99.99
2018-02-12T00:06:43.183Z,99.99
2018-02-12T00:07:43.097Z,99.99
2018-02-12T00:08:43.018Z,99.99
2018-02-12T00:09:42.921Z,99.99
2018-02-12T00:10:42.853Z,99.99
2018-02-12T00:11:42.772Z,99.99
2018-02-12T00:12:42.679Z,99.99
2018-02-12T00:13:42.587Z,99.99
2018-02-12T00:14:42.507Z,99.99
2018-02-12T00:15:42.426Z,99.99
2018-02-12T00:16:42.335Z,99.99
2018-02-12T00:17:42.251Z,99.99
2018-02-12T00:18:42.164Z,99.99
2018-02-12T00:19:42.077Z,99.99
2018-02-12T00:20:41.999Z,99.99
2018-02-12T00:21:41.917Z,99.99
2018-02-12T00:22:41.820Z,99.99
2018-02-12T00:23:41.744Z,99.99
2018-02-12T00:24:41.651Z,99.99
2018-02-12T00:25:41.573Z,99.99
2018-02-12T00:26:41.491Z,99.99
2018-02-12T00:27:41.404Z,99.99
2018-02-12T00:28:41.326Z,99.99
2018-02-12T00:29:41.226Z,99.99
2018-02-12T00:30:41.151Z,99.99
2018-02-12T00:31:41.078Z,99.99
2018-02-12T00:32:40.979Z,99.99
2018-02-12T00:33:40.901Z,99.99
2018-02-12T00:34:40.802Z,99.99
2018-02-12T00:35:40.724Z,99.99
2018-02-12T00:36:40.643Z,99.99
2018-02-12T00:37:40.559Z,99.99
2018-02-12T00:38:40.475Z,99.99
2018-02-12T00:39:40.379Z,99.99
2018-02-12T00:40:40.286Z,99.99
2018-02-12T00:41:40.221Z,99.99
2018-02-12T00:42:40.131Z,99.99
2018-02-12T00:43:40.044Z,99.99
2018-02-12T00:44:39.959Z,99.99
2018-02-12T00:45:39.876Z,99.99
2018-02-12T00:46:39.796Z,99.99
2018-02-12T00:47:39.702Z,99.99
2018-02-12T00:48:39.629Z,99.99
2018-02-12T00:49:39.528Z,99.99
2018-02-12T00:50:39.440Z,99.99
2018-02-12T00:51:39.361Z,99.99
2018-02-12T00:52:39.272Z,99.99
2018-02-12T00:53:39.187Z,99.99
2018-02-12T00:54:39.104Z,99.99
2018-02-12T00:55:39.026Z,99.99
2018-02-12T00:56:38.931Z,99.99
2018-02-12T00:57:38.865Z,99.99
2018-02-12T00:58:38.775Z,99.99
2018-02-12T00:59:38.682Z,99.99
2018-02-12T01:00:38.602Z,99.99
2018-02-12T01:01:38.502Z,99.99
2018-02-12T01:02:38.432Z,99.99
2018-02-12T01:03:38.337Z,99.99
2018-02-12T01:04:38.257Z,99.99
2018-02-12T01:05:38.177Z,99.99
2018-02-12T01:06:38.075Z,99.99
2018-02-12T01:07:38.009Z,99.99
2018-02-12T01:08:37.927Z,99.99
2018-02-12T01:09:37.826Z,99.99
2018-02-12T01:10:37.756Z,99.99
2018-02-12T01:11:37.663Z,99.99
2018-02-12T01:12:37.578Z,99.99
2018-02-12T01:13:37.485Z,99.99
2018-02-12T01:14:37.402Z,99.99
2018-02-12T01:15:37.329Z,99.99
2018-02-12T01:16:37.225Z,99.99
2018-02-12T01:17:37.151Z,99.99
2018-02-12T01:18:37.060Z,99.99
2018-02-12T01:19:36.979Z,99.99
2018-02-12T01:20:36.899Z,99.99
2018-02-12T01:21:36.807Z,99.99
2018-02-12T01:22:36.717Z,99.99
2018-02-12T01:23:36.630Z,99.99
2018-02-12T01:24:36.551Z,99.99
2018-02-12T01:25:36.465Z,99.99
2018-02-12T01:26:36.381Z,99.99
2018-02-12T01:27:36.303Z,99.99
2018-02-12T01:28:36.208Z,99.99
2018-02-12T01:29:36.133Z,99.99
2018-02-12T01:30:36.030Z,99.99
2018-02-12T01:31:35.958Z,99.99
2018-02-12T01:32:35.871Z,99.99
2018-02-12T01:33:35.781Z,99.99
2018-02-12T01:34:35.696Z,99.99
2018-02-12T01:35:35.610Z,99.99
2018-02-12T01:36:35.524Z,99.99
2018-02-12T01:37:35.447Z,99.99
2018-02-12T01:38:35.357Z,99.99
2018-02-12T01:39:35.285Z,99.99
2018-02-12T01:40:35.184Z,99.99
2018-02-12T01:41:35.106Z,99.99
2018-02-12T01:42:35.014Z,99.99
2018-02-12T01:43:34.932Z,99.99
2018-02-12T01:44:34.850Z,99.99
2018-02-12T01:45:34.758Z,99.99
2018-02-12T01:46:34.667Z,99.99
2018-02-12T01:47:34.585Z,99.99
2018-02-12T01:48:34.495Z,99.99
2018-02-12T01:49:34.419Z,99.99
2018-02-12T01:50:34.336Z,99.99
2018-02-12T01:51:34.260Z,99.99
2018-02-12T01:52:34.163Z,99.99
2018-02-12T01:53:34.089Z,99.99
2018-02-12T01:54:33.996Z,99.99
2018-02-12T01:55:33.912Z,99.99
2018-02-12T01:56:33.831Z,99.99
2018-02-12T01:57:33.732Z,99.99
2018-02-12T01:58:33.650Z,99.99
2018-02-12T01:59:33.582Z,99.99
2018-02-12T02:00:33.472Z,99.99
2018-02-12T02:01:33.414Z,99.99
2018-02-12T02:02:33.309Z,99.99
2018-02-12T02:03:33.236Z,99.99
2018-02-12T02:04:33.132Z,99.99
2018-02-12T02:05:33.045Z,99.99
2018-02-12T02:06:32.963Z,99.99
2018-02-12T02:07:32.885Z,99.99
2018-02-12T02:08:32.805Z,99.99
2018-02-12T02:09:32.713Z,99.99
2018-02-12T02:10:32.625Z,99.99
2018-02-12T02:11:32.536Z,99.99
2018-02-12T02:12:32.448Z,99.99
2018-02-12T02:13:32.372Z,99.99
2018-02-12T02:14:32.290Z,99.99
2018-02-12T02:15:32.199Z,99.99
2018-02-12T02:16:32.116Z,99.99
2018-02-12T02:17:32.039Z,99.99
2018-02-12T02:18:31.934Z,99.99
2018-02-12T02:19:31.864Z,99.99
2018-02-12T02:20:31.784Z,99.99
2018-02-12T02:21:31.688Z,99.99
2018-02-12T02:22:31.604Z,99.99
2018-02-12T02:23:31.509Z,99.99
2018-02-12T02:24:31.437Z,99.99
2018-02-12T02:25:31.343Z,99.99
2018-02-12T02:26:31.264Z,99.99
2018-02-12T02:27:31.177Z,99.99
2018-02-12T02:28:31.084Z,99.99
2018-02-12T02:29:30.999Z,99.99
2018-02-12T02:30:30.919Z,99.99
2018-02-12T02:31:30.834Z,99.99
2018-02-12T02:32:30.751Z,99.99
2018-02-12T02:33:30.663Z,99.99
2018-02-12T02:34:30.573Z,99.99
2018-02-12T02:35:30.490Z,99.99
2018-02-12T02:36:30.404Z,99.99
2018-02-12T02:37:30.310Z,99.99
2018-02-12T02:38:30.240Z,99.99
2018-02-12T02:39:30.150Z,99.99
2018-02-12T02:40:30.067Z,99.99
2018-02-12T02:41:29.979Z,99.99
2018-02-12T02:42:29.886Z,99.99
2018-02-12T02:43:29.802Z,99.99
2018-02-12T02:44:29.713Z,99.99
2018-02-12T02:45:29.636Z,99.99
2018-02-12T02:46:29.570Z,99.99
2018-02-12T02:47:29.466Z,99.99
2018-02-12T02:48:29.392Z,99.99
2018-02-12T02:49:29.297Z,99.99
2018-02-12T02:50:29.213Z,99.99
2018-02-12T02:51:29.137Z,99.99
2018-02-12T02:52:29.046Z,99.99
2018-02-12T02:53:28.967Z,99.99
2018-02-12T02:54:28.864Z,99.99
2018-02-12T02:55:28.785Z,99.99
2018-02-12T02:56:28.693Z,99.99
2018-02-12T02:57:28.616Z,99.99
2018-02-12T02:58:28.541Z,99.99
2018-02-12T02:59:28.440Z,99.99
2018-02-12T03:00:28.368Z,99.99
2018-02-12T03:01:28.268Z,99.99
2018-02-12T03:02:28.181Z,99.99
2018-02-12T03:03:28.105Z,99.99
2018-02-12T03:04:28.013Z,99.99
2018-02-12T03:05:27.926Z,99.99
2018-02-12T03:06:27.844Z,99.99
2018-02-12T03:07:27.763Z,99.99
2018-02-12T03:08:27.670Z,99.99
2018-02-12T03:09:27.587Z,99.99
2018-02-12T03:10:27.515Z,99.99
2018-02-12T03:11:27.422Z,99.99
2018-02-12T03:12:27.329Z,99.99
2018-02-12T03:13:27.240Z,99.99
2018-02-12T03:14:27.161Z,99.99
2018-02-12T03:15:27.069Z,99.99
2018-02-12T03:16:26.994Z,99.99
2018-02-12T03:17:26.905Z,99.99
2018-02-12T03:18:26.818Z,99.99
2018-02-12T03:19:26.735Z,99.99
2018-02-12T03:20:26.639Z,99.99
2018-02-12T03:21:26.553Z,99.99
2018-02-12T03:22:26.471Z,99.99
2018-02-12T03:23:26.392Z,99.99
2018-02-12T03:24:26.309Z,99.99
2018-02-12T03:25:26.223Z,99.99
2018-02-12T03:26:26.130Z,99.99
2018-02-12T03:27:26.047Z,99.99
2018-02-12T03:28:25.970Z,99.99
2018-02-12T03:29:25.872Z,99.99
2018-02-12T03:30:25.795Z,99.99
2018-02-12T03:31:25.709Z,99.99
2018-02-12T03:32:25.623Z,99.99
2018-02-12T03:33:25.540Z,99.99
2018-02-12T03:34:25.442Z,99.99
2018-02-12T03:35:25.369Z,99.99
2018-02-12T03:36:25.267Z,99.99
2018-02-12T03:37:25.191Z,99.99
2018-02-12T03:38:25.114Z,99.99
2018-02-12T03:39:25.020Z,99.99
2018-02-12T03:40:24.939Z,99.99
2018-02-12T03:41:24.848Z,99.99
2018-02-12T03:42:24.766Z,99.99
2018-02-12T03:43:24.681Z,99.99
2018-02-12T03:44:24.592Z,99.99
2018-02-12T03:45:24.507Z,99.99
2018-02-12T03:46:24.423Z,99.99
2018-02-12T03:47:24.335Z,99.99
2018-02-12T03:48:24.253Z,99.99
2018-02-12T03:49:24.160Z,99.99
2018-02-12T03:50:24.080Z,99.99
2018-02-12T03:51:24.001Z,99.99
2018-02-12T03:52:23.910Z,99.99
2018-02-12T03:53:23.822Z,99.99
2018-02-12T03:54:23.736Z,99.99
2018-02-12T03:55:23.646Z,99.99
2018-02-12T03:56:23.566Z,99.99
2018-02-12T03:57:23.475Z,99.99
2018-02-12T03:58:23.398Z,99.99
2018-02-12T03:59:23.313Z,99.99
2018-02-12T04:00:23.220Z,99.99
2018-02-12T04:01:23.150Z,99.99
2018-02-12T04:02:23.051Z,99.99
2018-02-12T04:03:22.957Z,99.99
2018-02-12T04:04:22.874Z,99.99
2018-02-12T04:05:22.801Z,99.99
2018-02-12T04:06:22.718Z,99.99
2018-02-12T04:07:22.629Z,99.99
2018-02-12T04:08:22.534Z,99.99
2018-02-12T04:09:22.446Z,99.99
2018-02-12T04:10:22.375Z,99.99
2018-02-12T04:11:22.285Z,99.99
2018-02-12T04:12:22.200Z,99.99
2018-02-12T04:13:22.119Z,99.99
2018-02-12T04:14:22.022Z,99.99
2018-02-12T04:15:21.936Z,99.99
2018-02-12T04:16:21.850Z,99.99
2018-02-12T04:17:21.770Z,99.99
2018-02-12T04:18:21.687Z,99.99
2018-02-12T04:19:21.602Z,99.99
2018-02-12T04:20:21.515Z,99.99
2018-02-12T04:21:21.426Z,99.99
2018-02-12T04:22:21.343Z,99.99
2018-02-12T04:23:21.255Z,99.99
2018-02-12T04:24:21.176Z,99.99
2018-02-12T04:25:21.088Z,99.99
2018-02-12T04:26:21.005Z,99.99
2018-02-12T04:27:20.921Z,99.99
2018-02-12T04:28:20.829Z,99.99
2018-02-12T04:29:20.749Z,99.99
2018-02-12T04:30:20.647Z,99.99
2018-02-12T04:31:20.633Z,99.99
2018-02-12T04:32:20.502Z,99.99
2018-02-12T04:33:20.399Z,99.99
2018-02-12T04:34:20.317Z,99.99
2018-02-12T04:35:20.222Z,99.99
2018-02-12T04:36:20.151Z,99.99
2018-02-12T04:37:20.070Z,99.99
2018-02-12T04:38:19.971Z,99.99
2018-02-12T04:39:19.909Z,99.99
2018-02-12T04:40:19.799Z,99.99
2018-02-12T04:41:19.712Z,99.99
2018-02-12T04:42:19.629Z,99.99
2018-02-12T04:43:19.550Z,99.99
2018-02-12T04:44:19.498Z,99.99
2018-02-12T04:45:19.379Z,99.99
2018-02-12T04:46:19.303Z,99.99
2018-02-12T04:47:19.207Z,99.99
2018-02-12T04:48:19.122Z,99.99
2018-02-12T04:49:19.025Z,99.99
2018-02-12T04:50:18.953Z,99.99
2018-02-12T04:51:18.864Z,99.99
2018-02-12T04:52:18.780Z,99.99
2018-02-12T04:53:18.705Z,99.99
2018-02-12T04:54:18.604Z,99.99
2018-02-12T04:55:18.528Z,99.99
2018-02-12T04:56:18.437Z,99.99
2018-02-12T04:57:18.350Z,99.99
2018-02-12T04:58:18.270Z,99.99
2018-02-12T04:59:18.179Z,99.99
2018-02-12T05:00:18.102Z,99.99
2018-02-12T05:01:18.019Z,99.99
2018-02-12T05:02:17.928Z,99.99
2018-02-12T05:03:17.840Z,99.99
2018-02-12T05:04:17.760Z,99.99
2018-02-12T05:05:17.681Z,99.99
2018-02-12T05:06:17.579Z,99.99
2018-02-12T05:07:17.504Z,99.99
2018-02-12T05:08:17.417Z,99.99
2018-02-12T05:09:17.332Z,99.99
2018-02-12T05:10:17.257Z,99.99
2018-02-12T05:11:17.155Z,99.99
2018-02-12T05:12:17.081Z,99.99
2018-02-12T05:13:17.007Z,99.99
2018-02-12T05:14:16.905Z,99.99
2018-02-12T05:15:16.820Z,99.99
2018-02-12T05:16:16.732Z,99.99
2018-02-12T05:17:16.661Z,99.99
2018-02-12T05:18:16.586Z,99.99
2018-02-12T05:19:16.482Z,99.99
2018-02-12T05:20:16.398Z,99.99
2018-02-12T05:21:16.311Z,99.99
2018-02-12T05:22:16.226Z,99.99
2018-02-12T05:23:16.145Z,99.99
2018-02-12T05:24:16.059Z,99.99
2018-02-12T05:25:15.978Z,99.99
2018-02-12T05:26:15.888Z,99.99
2018-02-12T05:27:15.791Z,99.99
2018-02-12T05:28:15.709Z,99.99
2018-02-12T05:29:15.637Z,99.99
2018-02-12T05:30:15.541Z,99.99
2018-02-12T05:31:15.466Z,99.99
2018-02-12T05:32:15.367Z,99.99
2018-02-12T05:33:15.282Z,99.99
2018-02-12T05:34:15.213Z,99.99
2018-02-12T05:35:15.123Z,99.99
2018-02-12T05:36:15.037Z,99.99
2018-02-12T05:37:14.953Z,99.99
2018-02-12T05:38:14.859Z,99.99
2018-02-12T05:39:14.782Z,99.99
2018-02-12T05:40:14.697Z,99.99
2018-02-12T05:41:14.603Z,99.99
2018-02-12T05:42:14.521Z,99.99
2018-02-12T05:43:14.430Z,99.99
2018-02-12T05:44:14.360Z,99.99
2018-02-12T05:45:14.277Z,99.99
2018-02-12T05:46:14.182Z,99.99
2018-02-12T05:47:14.114Z,99.99
2018-02-12T05:48:14.010Z,99.99
2018-02-12T05:49:13.936Z,99.99
2018-02-12T05:50:13.850Z,99.90
2018-02-12T05:51:13.756Z,99.80
2018-02-12T05:52:13.672Z,99.99
2018-02-12T05:53:13.585Z,99.99
2018-02-12T05:54:13.511Z,99.80
2018-02-12T05:55:13.429Z,99.99
2018-02-12T05:56:13.333Z,99.99
2018-02-12T05:57:13.247Z,99.99
2018-02-12T05:58:13.163Z,99.99
2018-02-12T05:59:13.080Z,99.99
2018-02-12T06:00:13.004Z,99.99
2018-02-12T06:01:12.914Z,99.80
2018-02-12T06:02:12.820Z,99.99
2018-02-12T06:03:12.736Z,99.99
2018-02-12T06:04:12.659Z,99.99
2018-02-12T06:05:12.575Z,99.90
2018-02-12T06:06:12.487Z,99.90
2018-02-12T06:07:12.396Z,99.99
2018-02-12T06:08:12.313Z,99.80
2018-02-12T06:09:12.224Z,99.80
2018-02-12T06:10:12.162Z,99.90
2018-02-12T06:11:12.071Z,99.99
2018-02-12T06:12:11.972Z,99.99
2018-02-12T06:13:11.888Z,99.52
2018-02-12T06:14:11.813Z,99.62
2018-02-12T06:15:11.721Z,99.99
2018-02-12T06:16:11.642Z,99.99
2018-02-12T06:17:11.564Z,99.99
2018-02-12T06:18:11.456Z,99.99
2018-02-12T06:19:11.387Z,99.71
2018-02-12T06:20:11.303Z,99.62
2018-02-12T06:21:11.208Z,99.99
2018-02-12T06:22:11.125Z,99.80
2018-02-12T06:23:11.035Z,99.99
2018-02-12T06:24:10.964Z,99.99
2018-02-12T06:25:10.877Z,99.99
2018-02-12T06:26:10.785Z,99.99
2018-02-12T06:27:10.705Z,99.62
2018-02-12T06:28:10.622Z,99.99
2018-02-12T06:29:10.535Z,99.99
2018-02-12T06:30:10.463Z,99.99
2018-02-12T06:31:10.366Z,99.99
2018-02-12T06:32:10.281Z,99.99
2018-02-12T06:33:10.194Z,99.99
2018-02-12T06:34:10.113Z,99.99
2018-02-12T06:35:10.028Z,99.99
2018-02-12T06:36:09.937Z,99.99
2018-02-12T06:37:09.852Z,99.99
2018-02-12T06:38:09.779Z,99.99
2018-02-12T06:39:09.686Z,99.99
2018-02-12T06:40:09.621Z,99.99
2018-02-12T06:41:09.514Z,99.90
2018-02-12T06:42:09.442Z,99.99
2018-02-12T06:43:09.357Z,99.99
2018-02-12T06:44:09.262Z,99.99
2018-02-12T06:45:09.178Z,99.99
2018-02-12T06:46:09.096Z,99.99
2018-02-12T06:47:09.017Z,99.99
2018-02-12T06:48:08.929Z,99.99
2018-02-12T06:49:08.840Z,99.99
2018-02-12T06:50:08.754Z,99.99
2018-02-12T06:51:08.671Z,99.99
2018-02-12T06:52:08.589Z,99.99
2018-02-12T06:53:08.500Z,99.62
2018-02-12T06:54:08.414Z,99.99
2018-02-12T06:55:08.342Z,99.99
2018-02-12T06:56:08.260Z,99.99
2018-02-12T06:57:08.169Z,99.62
2018-02-12T06:58:08.078Z,99.33
2018-02-12T06:59:08.030Z,99.62
2018-02-12T07:00:07.901Z,99.52
2018-02-12T07:01:07.812Z,99.99
2018-02-12T07:02:07.741Z,99.24
2018-02-12T07:03:07.652Z,99.62
2018-02-12T07:04:07.573Z,99.62
2018-02-12T07:05:07.484Z,99.24
2018-02-12T07:06:07.419Z,99.71
2018-02-12T07:07:07.324Z,99.43
2018-02-12T07:08:07.248Z,99.71
2018-02-12T07:09:07.142Z,99.62
2018-02-12T07:10:07.064Z,98.86
2018-02-12T07:11:06.993Z,99.15
2018-02-12T07:12:06.897Z,98.96
2018-02-12T07:13:06.849Z,98.20
2018-02-12T07:14:06.721Z,98.86
2018-02-12T07:15:06.644Z,98.58
2018-02-12T07:16:06.558Z,98.77
2018-02-12T07:17:06.475Z,98.15
2018-02-12T07:18:06.389Z,98.10
2018-02-12T07:19:06.322Z,97.58
2018-02-12T07:20:06.217Z,97.87
2018-02-12T07:21:06.140Z,97.11
2018-02-12T07:22:06.049Z,97.20
2018-02-12T07:23:05.969Z,97.68
2018-02-12T07:24:05.896Z,97.68
2018-02-12T07:25:05.797Z,97.39
2018-02-12T07:26:05.709Z,97.20
2018-02-12T07:27:05.623Z,97.20
2018-02-12T07:28:05.543Z,97.20
2018-02-12T07:29:05.469Z,97.30
2018-02-12T07:30:05.375Z,96.83
2018-02-12T07:31:05.293Z,96.83
2018-02-12T07:32:05.215Z,96.26
2018-02-12T07:33:05.125Z,96.45
2018-02-12T07:34:05.042Z,96.64
2018-02-12T07:35:04.947Z,97.02
2018-02-12T07:36:04.866Z,96.83
2018-02-12T07:37:04.809Z,96.83
2018-02-12T07:38:04.809Z,96.83
2018-02-12T07:39:04.721Z,97.02
2018-02-12T07:40:04.526Z,97.30
2018-02-12T07:41:04.483Z,96.45
2018-02-12T07:42:04.593Z,96.83
2018-02-12T07:43:04.277Z,96.07
2018-02-12T07:44:04.196Z,95.97
2018-02-12T07:45:04.109Z,96.16
2018-02-12T07:46:04.030Z,95.40
2018-02-12T07:47:03.942Z,95.59
2018-02-12T07:48:03.849Z,94.74
2018-02-12T07:49:03.780Z,95.59
2018-02-12T07:50:03.694Z,95.50
2018-02-12T07:51:03.599Z,94.74
2018-02-12T07:52:03.528Z,94.84
2018-02-12T07:53:03.446Z,94.56
2018-02-12T07:54:03.363Z,95.31
2018-02-12T07:55:03.274Z,95.31
2018-02-12T07:56:03.200Z,94.74
2018-02-12T07:57:03.104Z,94.98
2018-02-12T07:58:03.010Z,94.37
2018-02-12T07:59:02.933Z,94.65
2018-02-12T08:00:02.846Z,95.36
2018-02-12T08:01:02.769Z,94.32
2018-02-12T08:02:02.679Z,93.65
2018-02-12T08:03:02.596Z,93.27
2018-02-12T08:04:02.527Z,93.37
2018-02-12T08:05:02.425Z,93.56
2018-02-12T08:06:02.337Z,93.46
2018-02-12T08:07:02.267Z,93.27
2018-02-12T08:08:02.176Z,93.65
2018-02-12T08:09:02.083Z,93.65
2018-02-12T08:10:02.013Z,93.75
2018-02-12T08:11:01.922Z,93.46
2018-02-12T08:12:01.873Z,94.23
2018-02-12T08:13:01.752Z,93.84
2018-02-12T08:14:01.673Z,93.84
2018-02-12T08:15:01.589Z,93.84
2018-02-12T08:16:01.498Z,93.46
2018-02-12T08:17:01.429Z,93.46
2018-02-12T08:18:01.401Z,93.75
2018-02-12T08:19:01.248Z,93.56
2018-02-12T08:20:01.167Z,93.75
2018-02-12T08:21:01.095Z,94.13
2018-02-12T08:22:01.000Z,94.04
2018-02-12T08:23:00.918Z,93.65
2018-02-12T08:24:00.849Z,93.18
2018-02-12T08:25:00.748Z,93.84
2018-02-12T08:26:00.677Z,93.46
2018-02-12T08:27:00.577Z,93.37
2018-02-12T08:28:00.502Z,93.08
2018-02-12T08:29:00.420Z,93.18
2018-02-12T08:30:00.322Z,92.14
2018-02-12T08:31:00.253Z,92.43
2018-02-12T08:32:00.163Z,93.18
2018-02-12T08:33:00.078Z,93.18
2018-02-12T08:34:00.008Z,92.61
2018-02-12T08:34:59.913Z,92.43
2018-02-12T08:35:59.827Z,92.90
2018-02-12T08:36:59.755Z,93.27
2018-02-12T08:37:59.661Z,92.80
2018-02-12T08:38:59.578Z,92.90
2018-02-12T08:39:59.502Z,92.33
2018-02-12T08:40:59.418Z,91.76
2018-02-12T08:41:59.332Z,91.86
2018-02-12T08:42:59.250Z,91.29
2018-02-12T08:43:59.172Z,91.48
2018-02-12T08:44:59.079Z,92.05
2018-02-12T08:45:58.989Z,92.43
2018-02-12T08:46:58.916Z,91.76
2018-02-12T08:47:58.828Z,91.57
2018-02-12T08:48:58.762Z,91.67
2018-02-12T08:49:58.671Z,91.67
2018-02-12T08:50:58.587Z,91.48
2018-02-12T08:51:59.131Z,91.38
2018-02-12T08:52:58.509Z,91.67
2018-02-12T08:53:58.359Z,91.76
2018-02-12T08:54:58.275Z,91.76
2018-02-12T08:55:58.199Z,91.48
2018-02-12T08:56:58.163Z,91.38
2018-02-12T08:57:58.510Z,91.57
2018-02-12T08:58:57.914Z,91.76
2018-02-12T08:59:57.832Z,90.72
2018-02-12T09:00:57.743Z,90.91
2018-02-12T09:01:57.652Z,90.91
2018-02-12T09:02:57.584Z,90.34
2018-02-12T09:03:57.503Z,89.49
2018-02-12T09:04:57.404Z,88.96
2018-02-12T09:05:57.337Z,88.78
2018-02-12T09:06:57.240Z,88.87
2018-02-12T09:07:57.155Z,89.06
2018-02-12T09:08:57.080Z,89.06
2018-02-12T09:09:57.000Z,88.73
2018-02-12T09:10:56.964Z,89.01
2018-02-12T09:11:56.828Z,88.64
2018-02-12T09:12:56.747Z,88.64
2018-02-12T09:13:56.662Z,89.06
2018-02-12T09:14:56.582Z,88.96
2018-02-12T09:15:56.508Z,89.63
2018-02-12T09:16:56.406Z,88.68
2018-02-12T09:17:56.335Z,89.34
2018-02-12T09:18:56.247Z,88.68
2018-02-12T09:19:56.245Z,88.40
2018-02-12T09:20:56.087Z,89.06
2018-02-12T09:21:55.990Z,88.87
2018-02-12T09:22:55.909Z,88.87
2018-02-12T09:23:55.833Z,88.87
2018-02-12T09:24:55.743Z,89.58
2018-02-12T09:25:55.661Z,89.49
2018-02-12T09:26:55.694Z,89.39
2018-02-12T09:27:55.496Z,89.01
2018-02-12T09:28:55.410Z,89.49
2018-02-12T09:29:55.328Z,89.49
2018-02-12T09:30:55.264Z,89.49
2018-02-12T09:31:55.159Z,89.96
2018-02-12T09:32:55.080Z,90.25
2018-02-12T09:33:55.034Z,90.53
2018-02-12T09:34:54.908Z,89.96
2018-02-12T09:35:54.835Z,90.44
2018-02-12T09:36:54.750Z,89.68
2018-02-12T09:37:54.658Z,89.96
2018-02-12T09:38:54.585Z,90.20
2018-02-12T09:39:54.519Z,90.20
2018-02-12T09:40:54.405Z,89.82
2018-02-12T09:41:54.342Z,89.82
2018-02-12T09:42:54.258Z,89.82
2018-02-12T09:43:54.182Z,90.01
2018-02-12T09:44:54.092Z,90.06
2018-02-12T09:45:53.995Z,90.10
2018-02-12T09:46:53.913Z,90.15
2018-02-12T09:47:53.835Z,90.10
2018-02-12T09:48:53.819Z,90.01
2018-02-12T09:49:53.716Z,89.82
2018-02-12T09:50:53.587Z,90.01
2018-02-12T09:51:53.515Z,90.10
2018-02-12T09:52:53.415Z,90.20
2018-02-12T09:53:53.340Z,90.10
2018-02-12T09:54:53.254Z,89.44
2018-02-12T09:55:53.158Z,88.87
2018-02-12T09:56:53.087Z,88.78
2018-02-12T09:57:53.030Z,89.34
2018-02-12T09:58:52.935Z,87.97
2018-02-12T09:59:52.846Z,87.87
2018-02-12T10:00:52.751Z,86.74
2018-02-12T10:01:52.664Z,86.16
2018-02-12T10:02:52.585Z,85.55
2018-02-12T10:03:52.494Z,84.74
2018-02-12T10:04:52.433Z,84.22
2018-02-12T10:05:52.336Z,84.03
2018-02-12T10:06:52.259Z,83.84
2018-02-12T10:07:52.190Z,83.70
2018-02-12T10:08:52.089Z,84.41
2018-02-12T10:09:52.011Z,83.84
2018-02-12T10:10:51.936Z,83.61
2018-02-12T10:11:51.862Z,83.70
2018-02-12T10:12:51.860Z,83.23
2018-02-12T10:13:51.681Z,83.80
2018-02-12T10:14:51.590Z,84.36
2018-02-12T10:15:51.519Z,83.61
2018-02-12T10:16:51.428Z,83.98
2018-02-12T10:17:51.349Z,83.42
2018-02-12T10:18:51.262Z,83.74
2018-02-12T10:19:51.173Z,83.55
2018-02-12T10:20:51.100Z,82.04
2018-02-12T10:21:51.013Z,82.04
2018-02-12T10:22:50.939Z,81.94
2018-02-12T10:23:50.871Z,82.32
2018-02-12T10:24:50.770Z,82.42
2018-02-12T10:25:50.735Z,81.75
2018-02-12T10:26:50.607Z,82.42
2018-02-12T10:27:50.523Z,82.23
2018-02-12T10:28:50.438Z,83.17
2018-02-12T10:29:50.363Z,82.85
2018-02-12T10:30:50.291Z,83.04
2018-02-12T10:31:50.190Z,82.37
2018-02-12T10:32:50.120Z,82.75
2018-02-12T10:33:50.039Z,83.32
2018-02-12T10:34:49.955Z,83.13
2018-02-12T10:35:49.879Z,83.23
2018-02-12T10:36:49.780Z,83.70
2018-02-12T10:37:49.705Z,83.98
2018-02-12T10:38:49.611Z,83.80
2018-02-12T10:39:49.540Z,83.80
2018-02-12T10:40:49.469Z,83.70
2018-02-12T10:41:49.381Z,83.04
2018-02-12T10:42:49.291Z,81.99
2018-02-12T10:43:49.213Z,81.99
2018-02-12T10:44:49.128Z,82.47
2018-02-12T10:45:49.110Z,83.32
2018-02-12T10:46:48.964Z,82.56
2018-02-12T10:47:48.889Z,83.04
2018-02-12T10:48:48.794Z,83.32
2018-02-12T10:49:48.717Z,83.13
2018-02-12T10:50:48.641Z,82.56
2018-02-12T10:51:48.553Z,82.37
2018-02-12T10:52:48.469Z,82.28
2018-02-12T10:53:48.392Z,81.99
2018-02-12T10:54:48.315Z,81.81
2018-02-12T10:55:48.220Z,82.18
2018-02-12T10:56:48.144Z,82.28
2018-02-12T10:57:48.057Z,82.28
2018-02-12T10:58:47.985Z,81.81
2018-02-12T10:59:47.892Z,81.90
2018-02-12T11:00:47.819Z,81.62
2018-02-12T11:01:47.745Z,81.47
2018-02-12T11:02:47.640Z,80.80
2018-02-12T11:03:47.568Z,81.56
2018-02-12T11:04:47.483Z,81.56
2018-02-12T11:05:47.436Z,80.99
2018-02-12T11:06:47.321Z,80.52
2018-02-12T11:07:47.244Z,79.85
2018-02-12T11:08:47.167Z,80.43
2018-02-12T11:09:47.070Z,80.33
2018-02-12T11:10:47.001Z,80.04
2018-02-12T11:11:46.921Z,79.47
2018-02-12T11:12:46.822Z,79.85
2018-02-12T11:13:46.739Z,79.85
2018-02-12T11:14:46.672Z,79.66
2018-02-12T11:15:46.579Z,79.28
2018-02-12T11:16:46.494Z,79.19
2018-02-12T11:17:46.421Z,78.81
2018-02-12T11:18:46.331Z,78.91
2018-02-12T11:19:46.251Z,79.00
2018-02-12T11:20:46.177Z,78.34
2018-02-12T11:21:46.094Z,78.24
2018-02-12T11:22:46.008Z,77.96
2018-02-12T11:23:45.926Z,77.58
2018-02-12T11:24:45.848Z,76.92
2018-02-12T11:25:45.755Z,78.05
2018-02-12T11:26:45.702Z,77.77
2018-02-12T11:27:45.594Z,76.82
2018-02-12T11:28:45.521Z,77.14
2018-02-12T11:29:45.449Z,77.05
2018-02-12T11:30:45.357Z,77.62
2018-02-12T11:31:45.294Z,78.00
2018-02-12T11:32:45.199Z,76.82
2018-02-12T11:33:45.104Z,77.96
2018-02-12T11:34:45.028Z,77.86
2018-02-12T11:35:44.945Z,78.53
2018-02-12T11:36:44.869Z,79.10
2018-02-12T11:37:44.792Z,78.15
2018-02-12T11:38:44.697Z,77.48
2018-02-12T11:39:44.624Z,77.96
2018-02-12T11:40:44.537Z,77.96
2018-02-12T11:41:44.460Z,78.24
2018-02-12T11:42:44.375Z,78.53
2018-02-12T11:43:44.291Z,79.10
2018-02-12T11:44:44.207Z,79.00
2018-02-12T11:45:44.130Z,78.81
2018-02-12T11:46:44.045Z,79.00
2018-02-12T11:47:43.964Z,80.04
2018-02-12T11:48:43.902Z,79.76
2018-02-12T11:49:43.795Z,79.47
2018-02-12T11:50:43.723Z,79.76
2018-02-12T11:51:43.642Z,79.85
2018-02-12T11:52:43.572Z,78.81
2018-02-12T11:53:43.476Z,79.10
2018-02-12T11:54:43.398Z,79.38
2018-02-12T11:55:43.325Z,78.53
2018-02-12T11:56:43.225Z,79.10
2018-02-12T11:57:43.158Z,79.66
2018-02-12T11:58:43.075Z,79.19
2018-02-12T11:59:42.999Z,79.10
2018-02-12T12:00:42.897Z,79.66
2018-02-12T12:01:42.829Z,80.43
2018-02-12T12:02:42.743Z,80.52
2018-02-12T12:03:42.663Z,80.62
2018-02-12T12:04:42.586Z,80.86
2018-02-12T12:05:42.494Z,80.76
2018-02-12T12:06:42.428Z,80.67
2018-02-12T12:07:42.327Z,80.76
2018-02-12T12:08:42.256Z,80.48
2018-02-12T12:09:42.172Z,79.63
2018-02-12T12:10:42.089Z,78.96
2018-02-12T12:11:42.005Z,79.06
2018-02-12T12:12:41.926Z,80.10
2018-02-12T12:13:41.853Z,78.96
2018-02-12T12:14:41.750Z,79.06
2018-02-12T12:15:41.674Z,79.34
2018-02-12T12:16:41.595Z,79.82
2018-02-12T12:17:41.518Z,79.72
2018-02-12T12:18:41.455Z,79.19
2018-02-12T12:19:41.344Z,79.10
2018-02-12T12:20:41.265Z,78.43
2018-02-12T12:21:41.178Z,76.90
2018-02-12T12:22:41.107Z,73.08
2018-02-12T12:23:41.010Z,69.21
2018-02-12T12:24:40.934Z,66.39
2018-02-12T12:25:40.858Z,65.86
2018-02-12T12:26:40.776Z,67.44
2018-02-12T12:27:40.702Z,68.19
2018-02-12T12:28:40.605Z,67.03
2018-02-12T12:29:40.525Z,64.87
2018-02-12T12:30:40.458Z,63.32
2018-02-12T12:31:40.374Z,62.97
2018-02-12T12:32:40.280Z,62.02
2018-02-12T12:33:40.206Z,62.02
2018-02-12T12:34:40.127Z,61.86
2018-02-12T12:35:40.046Z,60.24
2018-02-12T12:36:39.955Z,59.89
2018-02-12T12:37:39.874Z,58.75
2018-02-12T12:38:39.808Z,58.81
2018-02-12T12:39:39.727Z,58.72
2018-02-12T12:40:39.638Z,59.10
2018-02-12T12:41:39.560Z,58.72
2018-02-12T12:42:39.491Z,58.75
2018-02-12T12:43:39.416Z,58.25
2018-02-12T12:44:39.328Z,58.34
2018-02-12T12:45:39.236Z,57.96
2018-02-12T12:46:39.161Z,57.77
2018-02-12T12:47:39.077Z,56.82
2018-02-12T12:48:39.004Z,56.15
2018-02-12T12:49:38.930Z,56.70
2018-02-12T12:50:38.849Z,58.63
2018-02-12T12:51:38.771Z,61.32